Time;durP1;ratioP1;P1;durP2;ratioP2;P2;SDS_P1;SDS_P2;PMS_P1;PMS_P2;Temp;Humidity;BMP_temperature;BMP_pressure;BME280_temperature;BME280_humidity;BME280_pressure;Samples;Min_cycle;Max_cycle;Signal;HPM_P1;HPM_P2
2022/05/21 00:03:42;;;;;;;26.27;11.35;;;;;;;;;;8441877;28;20071;-85
2022/05/21 00:07:44;;;;;;;21.13;11.63;;;;;;;;;;8430951;28;20059;-87
2022/05/21 00:11:49;;;;;;;21.08;10.35;;;;;;;;;;8426765;28;20126;-83
2022/05/21 00:15:51;;;;;;;17.98;11.88;;;;;;;;;;8430565;28;20044;-85
2022/05/21 00:19:54;;;;;;;17.10;9.48;;;;;;;;;;8427176;28;20093;-84
2022/05/21 00:23:57;;;;;;;14.25;9.52;;;;;;;;;;8430457;28;20062;-85
2022/05/21 00:28:01;;;;;;;13.95;9.85;;;;;;;;;;8430852;28;20064;-84
2022/05/21 00:32:04;;;;;;;15.70;9.88;;;;;;;;;;8428243;28;20400;-85
2022/05/21 00:36:08;;;;;;;14.95;9.75;;;;;;;;;;8429506;28;20051;-84
2022/05/21 00:40:13;;;;;;;15.38;10.20;;;;;;;;;;8430093;28;20051;-85
2022/05/21 00:44:17;;;;;;;13.85;10.43;;;;;;;;;;8428582;28;20038;-85
2022/05/21 00:48:20;;;;;;;13.25;9.77;;;;;;;;;;8429693;28;20047;-85
2022/05/21 00:52:25;;;;;;;15.30;9.82;;;;;;;;;;8429753;28;20048;-85
2022/05/21 00:56:31;;;;;;;14.07;9.85;;;;;;;;;;8429715;28;20048;-87
2022/05/21 01:00:36;;;;;;;13.10;9.90;;;;;;;;;;8424349;28;20067;-85
2022/05/21 01:04:42;;;;;;;13.55;9.55;;;;;;;;;;8428964;28;20044;-85
2022/05/21 01:08:45;;;;;;;14.55;10.05;;;;;;;;;;8430264;28;20042;-95
2022/05/21 01:12:50;;;;;;;13.45;10.13;;;;;;;;;;8429535;28;20044;-94
2022/05/21 01:16:55;;;;;;;17.38;11.30;;;;;;;;;;8428787;28;20487;-84
2022/05/21 01:21:00;;;;;;;14.00;10.07;;;;;;;;;;8429346;28;20395;-85
2022/05/21 01:25:04;;;;;;;17.63;11.27;;;;;;;;;;8428978;28;20124;-85
2022/05/21 01:29:11;;;;;;;15.73;11.15;;;;;;;;;;8428076;28;20403;-84
2022/05/21 01:33:16;;;;;;;17.70;11.15;;;;;;;;;;8429182;28;20070;-83
2022/05/21 01:37:19;;;;;;;16.83;11.18;;;;;;;;;;8428822;28;20132;-84
2022/05/21 01:41:23;;;;;;;18.05;11.32;;;;;;;;;;8428245;28;20048;-84
2022/05/21 01:45:26;;;;;;;17.35;11.35;;;;;;;;;;8428021;28;20051;-84
2022/05/21 01:49:28;;;;;;;14.65;10.82;;;;;;;;;;8420976;28;20048;-87
2022/05/21 01:53:31;;;;;;;15.57;10.82;;;;;;;;;;8435027;28;20051;-85
2022/05/21 01:57:35;;;;;;;16.02;10.63;;;;;;;;;;8435037;28;20047;-95
2022/05/21 02:01:38;;;;;;;15.20;10.43;;;;;;;;;;8434085;28;20044;-85
2022/05/21 02:05:44;;;;;;;12.25;9.68;;;;;;;;;;8434590;28;20396;-85
2022/05/21 02:09:47;;;;;;;13.30;9.80;;;;;;;;;;8434276;28;20074;-85
2022/05/21 02:13:51;;;;;;;17.80;9.98;;;;;;;;;;8426787;28;20040;-85
2022/05/21 02:17:53;;;;;;;15.48;9.48;;;;;;;;;;8434667;28;20480;-86
2022/05/21 02:21:57;;;;;;;16.60;9.57;;;;;;;;;;8433697;28;20159;-89
2022/05/21 02:26:01;;;;;;;13.45;8.88;;;;;;;;;;8433587;28;20051;-86
2022/05/21 02:30:06;;;;;;;15.50;8.93;;;;;;;;;;8426260;28;20040;-86
2022/05/21 02:34:08;;;;;;;11.45;8.15;;;;;;;;;;8434026;28;20040;-86
2022/05/21 02:42:47;;;;;;;10.90;7.22;;;;;;;;;;8427958;28;20079;-86
2022/05/21 02:46:51;;;;;;;12.63;7.57;;;;;;;;;;8426810;28;20044;-86
2022/05/21 02:50:54;;;;;;;10.15;6.72;;;;;;;;;;8433411;28;20044;-86
2022/05/21 02:54:57;;;;;;;12.57;6.85;;;;;;;;;;8432686;28;20411;-87
2022/05/21 02:58:59;;;;;;;7.80;6.13;;;;;;;;;;8425249;28;20047;-86
2022/05/21 03:03:04;;;;;;;9.70;6.60;;;;;;;;;;8432293;28;20096;-88
2022/05/21 03:07:06;;;;;;;8.63;6.10;;;;;;;;;;8432819;28;20048;-88
2022/05/21 03:11:09;;;;;;;13.68;6.28;;;;;;;;;;8432390;28;20093;-90
2022/05/21 03:15:11;;;;;;;9.82;6.00;;;;;;;;;;8431930;28;20044;-90
2022/05/21 03:19:16;;;;;;;10.30;6.50;;;;;;;;;;8430937;28;20536;-88
2022/05/21 03:23:18;;;;;;;10.95;6.32;;;;;;;;;;8429050;28;20124;-87
2022/05/21 03:27:21;;;;;;;10.38;6.00;;;;;;;;;;8425146;28;20059;-89
2022/05/21 03:31:23;;;;;;;8.70;6.20;;;;;;;;;;8431789;28;20512;-89
2022/05/21 03:35:28;;;;;;;10.02;6.70;;;;;;;;;;8431625;28;20048;-89
2022/05/21 03:39:30;;;;;;;9.18;6.47;;;;;;;;;;8431236;28;20134;-89
2022/05/21 03:43:33;;;;;;;9.93;6.53;;;;;;;;;;8424718;28;20047;-89
2022/05/21 03:47:36;;;;;;;8.82;5.93;;;;;;;;;;8431124;28;20097;-88
2022/05/21 03:51:41;;;;;;;9.95;5.97;;;;;;;;;;8430880;28;20558;-87
2022/05/21 03:55:44;;;;;;;9.48;5.65;;;;;;;;;;8430328;28;20101;-87
2022/05/21 03:59:48;;;;;;;9.35;6.00;;;;;;;;;;8424644;28;20047;-87
2022/05/21 04:03:54;;;;;;;10.15;6.30;;;;;;;;;;8424450;28;20056;-89
2022/05/21 04:07:58;;;;;;;20.65;16.13;;;;;;;;;;8430554;28;20453;-88
2022/05/21 04:12:01;;;;;;;13.23;7.70;;;;;;;;;;8417730;28;20048;-87
2022/05/21 04:16:04;;;;;;;9.65;6.35;;;;;;;;;;8430191;28;20044;-88
2022/05/21 04:20:09;;;;;;;11.32;6.93;;;;;;;;;;8430195;28;20048;-88
2022/05/21 04:24:13;;;;;;;15.30;10.13;;;;;;;;;;8429886;28;20052;-88
2022/05/21 04:28:16;;;;;;;12.38;7.65;;;;;;;;;;8423904;28;20044;-88
2022/05/21 04:32:19;;;;;;;12.43;6.88;;;;;;;;;;8430221;28;20051;-87
2022/05/21 04:36:22;;;;;;;12.43;6.38;;;;;;;;;;8429828;28;20058;-87
2022/05/21 04:40:27;;;;;;;12.35;7.57;;;;;;;;;;8426774;28;20048;-89
2022/05/21 04:44:34;;;;;;;9.32;7.50;;;;;;;;;;8427726;28;20051;-87
2022/05/21 04:48:37;;;;;;;10.57;6.03;;;;;;;;;;8412030;28;20044;-86
2022/05/21 04:52:40;;;;;;;12.30;5.95;;;;;;;;;;8424404;28;20473;-88
2022/05/21 04:56:44;;;;;;;10.43;7.53;;;;;;;;;;8429644;28;20541;-92
2022/05/21 05:00:47;;;;;;;7.60;5.90;;;;;;;;;;8429571;28;20051;-87
2022/05/21 05:04:49;;;;;;;9.65;5.85;;;;;;;;;;8428750;28;20408;-87
2022/05/21 05:08:52;;;;;;;10.20;7.35;;;;;;;;;;8429520;28;20052;-88
2022/05/21 05:12:56;;;;;;;13.77;7.43;;;;;;;;;;8429453;28;20051;-89
2022/05/21 05:16:59;;;;;;;11.43;8.27;;;;;;;;;;8429501;28;20049;-88
2022/05/21 05:21:02;;;;;;;10.23;7.47;;;;;;;;;;8429837;28;20507;-88
2022/05/21 05:25:05;;;;;;;12.48;7.43;;;;;;;;;;8434283;28;20056;-89
2022/05/21 05:29:09;;;;;;;10.02;7.40;;;;;;;;;;8436202;28;20048;-93
2022/05/21 05:33:12;;;;;;;9.60;6.75;;;;;;;;;;8434809;28;20085;-89
2022/05/21 05:37:15;;;;;;;9.65;5.93;;;;;;;;;;8424723;28;20050;-88
2022/05/21 05:41:18;;;;;;;9.02;6.18;;;;;;;;;;8434892;28;20044;-89
2022/05/21 05:45:22;;;;;;;10.70;5.57;;;;;;;;;;8434764;28;20055;-93
2022/05/21 05:49:25;;;;;;;9.85;5.30;;;;;;;;;;8429706;28;20077;-92
2022/05/21 05:53:30;;;;;;;8.35;4.78;;;;;;;;;;8435398;28;20498;-90
2022/05/21 05:57:33;;;;;;;10.82;5.03;;;;;;;;;;8434786;28;20415;-90
2022/05/21 06:01:38;;;;;;;8.05;4.35;;;;;;;;;;8434318;28;20044;-89
2022/05/21 06:05:41;;;;;;;7.65;3.33;;;;;;;;;;8434088;28;20051;-88
2022/05/21 06:09:44;;;;;;;8.45;3.60;;;;;;;;;;8435023;28;20044;-89
2022/05/21 06:13:47;;;;;;;6.45;3.60;;;;;;;;;;8434427;28;20476;-88
2022/05/21 06:17:52;;;;;;;5.97;3.53;;;;;;;;;;8433296;28;20388;-90
2022/05/21 06:21:58;;;;;;;8.60;3.30;;;;;;;;;;8435441;28;20059;-92
2022/05/21 06:26:01;;;;;;;4.75;3.10;;;;;;;;;;8401632;28;20384;-90
2022/05/21 06:30:13;;;;;;;5.60;2.63;;;;;;;;;;8418987;28;20036;-92
2022/05/21 06:34:22;;;;;;;3.38;1.80;;;;;;;;;;8433470;28;20396;-89
2022/05/21 06:38:26;;;;;;;3.17;1.75;;;;;;;;;;8430658;28;20046;-86
2022/05/21 06:42:29;;;;;;;4.85;1.88;;;;;;;;;;8421400;28;20453;-93
2022/05/21 06:46:33;;;;;;;2.40;1.50;;;;;;;;;;8425619;28;20119;-88
2022/05/21 06:55:13;;;;;;;6.20;1.33;;;;;;;;;;8429205;28;20070;-94
2022/05/21 06:59:17;;;;;;;4.53;1.27;;;;;;;;;;8430923;28;20481;-89
2022/05/21 07:03:21;;;;;;;4.53;1.48;;;;;;;;;;8432235;28;20051;-86
2022/05/21 07:07:35;;;;;;;5.25;1.88;;;;;;;;;;8432809;28;20044;-91
2022/05/21 07:11:39;;;;;;;3.40;1.40;;;;;;;;;;8418514;28;20044;-88
2022/05/21 07:15:42;;;;;;;2.30;1.08;;;;;;;;;;8415140;28;20594;-91
2022/05/21 07:19:46;;;;;;;8.75;1.30;;;;;;;;;;8432354;28;20048;-90
2022/05/21 07:23:52;;;;;;;5.53;1.30;;;;;;;;;;8426300;28;20112;-89
2022/05/21 07:27:58;;;;;;;4.05;1.33;;;;;;;;;;8432206;28;20048;-89
2022/05/21 07:32:02;;;;;;;3.03;1.38;;;;;;;;;;8429493;28;20055;-92
2022/05/21 07:36:06;;;;;;;6.72;1.40;;;;;;;;;;8431817;28;20052;-92
2022/05/21 07:40:15;;;;;;;3.45;1.40;;;;;;;;;;8430477;28;20055;-91
2022/05/21 07:44:18;;;;;;;2.95;1.70;;;;;;;;;;8429160;28;20040;-87
2022/05/21 07:48:23;;;;;;;8.85;1.48;;;;;;;;;;8428119;28;20048;-94
2022/05/21 07:52:27;;;;;;;5.03;1.40;;;;;;;;;;8435208;28;20119;-96
2022/05/21 07:56:33;;;;;;;4.05;1.20;;;;;;;;;;8435515;28;20052;-94
2022/05/21 08:00:36;;;;;;;6.78;1.70;;;;;;;;;;8434605;28;20131;-88
2022/05/21 08:04:40;;;;;;;7.45;1.40;;;;;;;;;;8430844;28;20049;-88
2022/05/21 08:08:43;;;;;;;4.50;1.50;;;;;;;;;;8441924;28;20059;-89
2022/05/21 08:12:48;;;;;;;4.93;1.52;;;;;;;;;;8429662;28;20051;-88
2022/05/21 08:16:51;;;;;;;4.95;1.58;;;;;;;;;;8420573;28;20056;-92
2022/05/21 08:20:54;;;;;;;4.50;1.80;;;;;;;;;;8422567;28;20130;-88
2022/05/21 08:29:22;;;;;;;4.60;1.70;;;;;;;;;;8429305;28;20048;-90
2022/05/21 08:33:25;;;;;;;3.75;1.80;;;;;;;;;;8426869;28;20484;-87
2022/05/21 08:37:46;;;;;;;6.70;1.45;;;;;;;;;;8428836;28;20051;-87
2022/05/21 08:42:13;;;;;;;3.25;1.55;;;;;;;;;;8427952;28;20036;-89
2022/05/21 08:46:56;;;;;;;8.60;2.10;;;;;;;;;;8426141;28;20051;-87
2022/05/21 08:51:41;;;;;;;2.83;1.50;;;;;;;;;;8414924;28;20064;-88
2022/05/21 08:55:58;;;;;;;5.05;1.65;;;;;;;;;;8426637;28;20126;-87
2022/05/21 09:00:08;;;;;;;4.43;1.60;;;;;;;;;;8417454;28;20476;-87
2022/05/21 09:04:22;;;;;;;3.08;1.40;;;;;;;;;;8425162;28;20044;-89
2022/05/21 09:08:52;;;;;;;3.78;1.27;;;;;;;;;;8434821;28;20047;-89
2022/05/21 09:13:25;;;;;;;2.17;1.60;;;;;;;;;;8427262;28;20044;-89
2022/05/21 09:18:04;;;;;;;3.15;1.70;;;;;;;;;;8433067;28;20442;-88
2022/05/21 09:22:31;;;;;;;6.82;1.60;;;;;;;;;;8428166;28;20087;-89
2022/05/21 09:27:00;;;;;;;6.93;1.67;;;;;;;;;;8426321;28;20090;-88
2022/05/21 09:31:33;;;;;;;6.50;2.10;;;;;;;;;;8428445;28;20051;-89
2022/05/21 09:36:09;;;;;;;5.70;2.38;;;;;;;;;;8432160;28;20040;-89
2022/05/21 09:40:41;;;;;;;4.18;1.90;;;;;;;;;;8418820;28;20044;-88
2022/05/21 09:49:35;;;;;;;5.20;2.07;;;;;;;;;;8413418;28;20394;-89
2022/05/21 09:53:57;;;;;;;6.10;2.30;;;;;;;;;;8430258;28;20086;-90
2022/05/21 09:58:17;;;;;;;2.67;2.00;;;;;;;;;;8433673;28;20044;-89
2022/05/21 10:02:45;;;;;;;6.32;1.83;;;;;;;;;;8427009;28;20048;-91
2022/05/21 10:11:57;;;;;;;5.97;2.20;;;;;;;;;;8425403;28;20071;-89
2022/05/21 10:16:21;;;;;;;4.22;1.77;;;;;;;;;;8433290;28;20141;-88
2022/05/21 10:20:46;;;;;;;1.67;1.58;;;;;;;;;;8429049;28;20091;-90
2022/05/21 10:25:27;;;;;;;4.15;2.15;;;;;;;;;;8423863;28;20121;-89
2022/05/21 10:30:05;;;;;;;3.42;1.42;;;;;;;;;;8422924;28;20055;-91
2022/05/21 10:34:39;;;;;;;4.18;1.70;;;;;;;;;;8406391;28;20114;-88
2022/05/21 10:39:15;;;;;;;6.25;1.77;;;;;;;;;;8420163;28;20047;-90
2022/05/21 10:44:19;;;;;;;7.15;2.05;;;;;;;;;;8426173;28;20036;-89
2022/05/21 10:48:59;;;;;;;3.72;1.90;;;;;;;;;;8424023;28;20361;-90
2022/05/21 10:53:37;;;;;;;5.60;1.95;;;;;;;;;;8432600;28;20052;-90
2022/05/21 10:58:11;;;;;;;6.93;2.80;;;;;;;;;;8416127;28;20059;-90
2022/05/21 11:08:09;;;;;;;4.22;2.05;;;;;;;;;;8421082;28;20046;-90
2022/05/21 11:12:27;;;;;;;3.55;1.77;;;;;;;;;;8419312;28;20051;-90
2022/05/21 11:17:01;;;;;;;8.35;1.98;;;;;;;;;;8424321;28;20047;-90
2022/05/21 11:26:31;;;;;;;5.38;1.65;;;;;;;;;;8430625;28;20046;-90
2022/05/21 11:31:05;;;;;;;2.30;1.70;;;;;;;;;;8414290;28;20055;-92
2022/05/21 11:40:11;;;;;;;4.40;1.45;;;;;;;;;;8424962;28;20113;-89
2022/05/21 11:45:02;;;;;;;17.45;2.17;;;;;;;;;;8426978;28;20480;-90
2022/05/21 11:49:45;;;;;;;5.30;1.70;;;;;;;;;;8427740;28;20040;-91
2022/05/21 11:54:36;;;;;;;8.90;2.08;;;;;;;;;;8421306;28;20040;-89
2022/05/21 11:59:32;;;;;;;7.80;3.20;;;;;;;;;;8420082;28;20102;-90
2022/05/21 12:03:56;;;;;;;2.85;1.70;;;;;;;;;;8398703;28;20052;-89
2022/05/21 12:08:12;;;;;;;3.78;1.60;;;;;;;;;;8426759;28;20067;-90
2022/05/21 12:12:22;;;;;;;6.53;1.55;;;;;;;;;;8426457;28;20494;-90
2022/05/21 12:16:48;;;;;;;5.63;1.92;;;;;;;;;;8429280;28;20520;-91
2022/05/21 12:20:56;;;;;;;7.43;2.10;;;;;;;;;;8431587;28;20048;-93
2022/05/21 12:25:01;;;;;;;5.57;2.20;;;;;;;;;;8430864;28;20126;-89
2022/05/21 12:29:11;;;;;;;12.02;2.65;;;;;;;;;;8428986;28;20047;-90
2022/05/21 12:33:25;;;;;;;6.18;1.83;;;;;;;;;;8430568;28;20044;-91
2022/05/21 12:37:32;;;;;;;5.18;1.60;;;;;;;;;;8430708;28;20487;-89
2022/05/21 12:41:41;;;;;;;4.03;1.92;;;;;;;;;;8423119;28;20126;-92
2022/05/21 12:45:49;;;;;;;5.60;1.70;;;;;;;;;;8422357;28;20471;-89
2022/05/21 12:49:53;;;;;;;5.00;1.50;;;;;;;;;;8421971;28;20093;-88
2022/05/21 12:53:59;;;;;;;2.85;1.70;;;;;;;;;;8421314;28;20131;-91
2022/05/21 12:58:22;;;;;;;3.67;1.60;;;;;;;;;;8412273;28;20465;-89
2022/05/21 13:02:26;;;;;;;25.38;2.05;;;;;;;;;;8426322;28;20044;-91
2022/05/21 13:06:34;;;;;;;7.13;1.52;;;;;;;;;;8426656;28;20042;-91
2022/05/21 13:10:42;;;;;;;9.00;2.28;;;;;;;;;;8418862;28;20126;-92
2022/05/21 13:14:49;;;;;;;6.03;1.88;;;;;;;;;;8423317;28;20051;-91
2022/05/21 13:19:10;;;;;;;4.05;1.40;;;;;;;;;;8418383;28;20095;-89
2022/05/21 13:23:26;;;;;;;3.10;1.40;;;;;;;;;;8422913;28;20055;-90
2022/05/21 13:27:49;;;;;;;1.80;1.25;;;;;;;;;;8420572;28;20040;-90
2022/05/21 13:31:56;;;;;;;6.32;1.73;;;;;;;;;;8417434;28;20139;-91
2022/05/21 13:36:02;;;;;;;5.70;1.80;;;;;;;;;;8423038;28;20074;-90
2022/05/21 13:40:10;;;;;;;5.65;2.40;;;;;;;;;;8419075;28;20086;-90
2022/05/21 13:44:24;;;;;;;6.72;2.78;;;;;;;;;;8424832;28;20438;-93
2022/05/21 13:48:33;;;;;;;8.57;2.50;;;;;;;;;;8430634;28;20067;-91
2022/05/21 13:52:41;;;;;;;6.70;1.80;;;;;;;;;;8427203;28;20044;-93
2022/05/21 14:01:03;;;;;;;3.38;1.95;;;;;;;;;;8400349;23;20086;-85
2022/05/21 14:05:29;;;;;;;10.88;2.65;;;;;;;;;;8260055;28;20049;-83
2022/05/21 14:09:47;;;;;;;8.70;2.63;;;;;;;;;;8260225;28;20042;-88
2022/05/21 14:14:02;;;;;;;9.13;2.00;;;;;;;;;;8254364;28;20058;-86
2022/05/21 14:18:11;;;;;;;7.10;2.97;;;;;;;;;;8264240;28;20077;-84
2022/05/21 14:22:41;;;;;;;9.77;2.88;;;;;;;;;;8254694;28;20042;-87
2022/05/21 14:27:04;;;;;;;8.35;2.45;;;;;;;;;;8261809;28;20070;-90
2022/05/21 14:31:39;;;;;;;4.18;2.10;;;;;;;;;;8260309;28;20081;-90
2022/05/21 14:35:56;;;;;;;6.20;2.15;;;;;;;;;;8268844;28;20478;-89
2022/05/21 14:40:36;;;;;;;4.20;1.70;;;;;;;;;;8266361;28;20494;-90
2022/05/21 14:44:50;;;;;;;4.53;2.03;;;;;;;;;;8264019;28;20490;-89
2022/05/21 14:49:10;;;;;;;4.20;1.60;;;;;;;;;;8263960;28;20409;-90
2022/05/21 14:53:23;;;;;;;3.63;2.28;;;;;;;;;;8261753;28;20050;-91
2022/05/21 14:57:45;;;;;;;6.68;2.00;;;;;;;;;;8258089;28;20050;-88
2022/05/21 15:01:57;;;;;;;5.28;1.70;;;;;;;;;;8265703;28;20120;-91
2022/05/21 15:06:05;;;;;;;5.15;2.47;;;;;;;;;;8256045;28;20050;-89
2022/05/21 15:10:14;;;;;;;6.68;2.30;;;;;;;;;;8264706;28;20137;-91
2022/05/21 15:14:30;;;;;;;3.88;2.03;;;;;;;;;;8264811;28;20482;-91
2022/05/21 15:18:40;;;;;;;3.20;2.00;;;;;;;;;;8263274;28;20126;-86
2022/05/21 15:22:52;;;;;;;5.45;2.50;;;;;;;;;;8259784;28;20410;-90
2022/05/21 15:27:01;;;;;;;5.07;1.80;;;;;;;;;;8262028;28;20046;-90
2022/05/21 15:31:17;;;;;;;5.03;2.05;;;;;;;;;;8261710;28;20050;-88
2022/05/21 15:35:25;;;;;;;11.02;2.03;;;;;;;;;;8266493;28;20051;-88
2022/05/21 15:39:29;;;;;;;2.55;1.67;;;;;;;;;;8262427;28;20407;-89
2022/05/21 15:43:32;;;;;;;6.80;2.90;;;;;;;;;;8262586;28;20134;-86
2022/05/21 15:47:37;;;;;;;5.55;2.65;;;;;;;;;;8260806;28;20047;-85
2022/05/21 15:51:41;;;;;;;5.03;2.20;;;;;;;;;;8257821;28;20057;-85
2022/05/21 15:55:45;;;;;;;4.95;2.30;;;;;;;;;;8262661;28;20046;-86
2022/05/21 15:59:48;;;;;;;4.60;2.17;;;;;;;;;;8254560;28;20146;-85
2022/05/21 16:03:54;;;;;;;3.92;2.15;;;;;;;;;;8252225;28;20092;-84
2022/05/21 16:07:57;;;;;;;2.67;1.48;;;;;;;;;;8260922;28;20042;-84
2022/05/21 16:12:00;;;;;;;4.03;1.88;;;;;;;;;;8260697;28;20050;-85
2022/05/21 16:16:04;;;;;;;3.03;1.85;;;;;;;;;;8249657;28;20129;-85
2022/05/21 16:20:10;;;;;;;4.82;2.13;;;;;;;;;;8260266;28;20049;-84
2022/05/21 16:24:14;;;;;;;6.38;2.30;;;;;;;;;;8261378;28;20050;-87
2022/05/21 16:28:18;;;;;;;5.25;2.40;;;;;;;;;;8253622;28;20047;-84
2022/05/21 16:32:24;;;;;;;4.72;2.53;;;;;;;;;;8263697;28;20050;-86
2022/05/21 16:36:31;;;;;;;3.88;1.98;;;;;;;;;;8264129;28;20050;-87
2022/05/21 16:40:33;;;;;;;8.80;2.22;;;;;;;;;;8261902;28;20066;-85
2022/05/21 16:44:37;;;;;;;2.85;1.88;;;;;;;;;;8263925;28;20054;-84
2022/05/21 16:48:39;;;;;;;4.85;2.50;;;;;;;;;;8261309;28;20170;-84
2022/05/21 16:52:44;;;;;;;6.35;3.20;;;;;;;;;;8259133;28;20054;-84
2022/05/21 16:56:47;;;;;;;8.45;3.58;;;;;;;;;;8259678;28;20046;-85
2022/05/21 17:00:50;;;;;;;14.77;3.58;;;;;;;;;;8257252;28;20438;-84
2022/05/21 17:04:53;;;;;;;10.30;3.97;;;;;;;;;;8257504;28;20047;-84
2022/05/21 17:08:59;;;;;;;8.30;3.50;;;;;;;;;;8256279;28;20042;-85
2022/05/21 17:13:02;;;;;;;8.68;3.53;;;;;;;;;;8259076;28;20042;-85
2022/05/21 17:17:06;;;;;;;4.60;2.55;;;;;;;;;;8257869;28;20061;-88
2022/05/21 17:21:09;;;;;;;4.95;2.70;;;;;;;;;;8255556;28;20397;-84
2022/05/21 17:25:15;;;;;;;5.20;3.00;;;;;;;;;;8255346;28;20053;-84
2022/05/21 17:33:42;;;;;;;6.70;3.22;;;;;;;;;;8270615;28;20047;-84
2022/05/21 17:37:46;;;;;;;5.50;2.67;;;;;;;;;;8267209;28;20487;-85
2022/05/21 17:41:52;;;;;;;5.72;2.75;;;;;;;;;;8261373;28;20054;-85
2022/05/21 17:45:55;;;;;;;4.93;2.55;;;;;;;;;;8270362;28;20054;-86
2022/05/21 17:49:59;;;;;;;7.75;2.83;;;;;;;;;;8270328;28;20046;-85
2022/05/21 17:54:19;;;;;;;4.18;2.58;;;;;;;;;;8258293;28;20379;-89
2022/05/21 17:58:29;;;;;;;3.97;2.37;;;;;;;;;;8268254;28;20058;-86
2022/05/21 18:02:45;;;;;;;1.88;1.40;;;;;;;;;;8257776;28;20058;-87
2022/05/21 18:06:48;;;;;;;3.63;2.10;;;;;;;;;;8262692;28;20050;-85
2022/05/21 18:10:52;;;;;;;3.97;2.50;;;;;;;;;;8258876;28;20042;-84
2022/05/21 18:15:00;;;;;;;7.18;3.45;;;;;;;;;;8263355;28;20129;-85
2022/05/21 18:19:20;;;;;;;3.90;1.92;;;;;;;;;;8264422;28;20047;-88
2022/05/21 18:23:32;;;;;;;4.32;2.00;;;;;;;;;;8265925;28;20058;-86
2022/05/21 18:27:38;;;;;;;7.03;2.58;;;;;;;;;;8267844;28;20058;-85
2022/05/21 18:31:48;;;;;;;3.65;2.15;;;;;;;;;;8264321;28;20513;-89
2022/05/21 18:35:53;;;;;;;3.60;2.00;;;;;;;;;;8267255;28;20124;-86
2022/05/21 18:40:00;;;;;;;3.65;2.28;;;;;;;;;;8263090;28;20038;-87
2022/05/21 18:44:08;;;;;;;3.05;2.05;;;;;;;;;;8252675;28;20038;-88
2022/05/21 18:48:25;;;;;;;4.53;2.13;;;;;;;;;;8242372;28;20545;-89
2022/05/21 18:52:29;;;;;;;6.68;2.40;;;;;;;;;;8245258;28;20121;-87
2022/05/21 18:56:35;;;;;;;5.10;2.28;;;;;;;;;;8247132;28;20047;-87
2022/05/21 19:00:40;;;;;;;5.15;2.20;;;;;;;;;;8246164;28;20499;-87
2022/05/21 19:04:46;;;;;;;3.45;2.00;;;;;;;;;;8242245;28;20206;-86
2022/05/21 19:08:50;;;;;;;3.00;2.08;;;;;;;;;;8239321;28;20053;-90
2022/05/21 19:12:56;;;;;;;4.93;2.30;;;;;;;;;;8242643;28;20050;-89
2022/05/21 19:17:00;;;;;;;4.03;2.05;;;;;;;;;;8248841;28;20039;-88
2022/05/21 19:21:07;;;;;;;3.53;2.10;;;;;;;;;;8265039;28;20410;-87
2022/05/21 19:25:13;;;;;;;4.07;2.22;;;;;;;;;;8262555;28;20255;-88
2022/05/21 19:29:20;;;;;;;4.28;2.10;;;;;;;;;;8265877;28;21500;-88
2022/05/21 19:33:23;;;;;;;5.03;2.20;;;;;;;;;;8265609;28;20074;-86
2022/05/21 19:37:27;;;;;;;5.32;2.28;;;;;;;;;;8265618;28;20038;-86
2022/05/21 19:41:31;;;;;;;4.32;2.55;;;;;;;;;;8263414;28;20047;-86
2022/05/21 19:45:37;;;;;;;3.63;2.55;;;;;;;;;;8264461;28;20057;-87
2022/05/21 19:49:40;;;;;;;4.32;2.47;;;;;;;;;;8265033;28;20061;-85
2022/05/21 19:53:45;;;;;;;6.57;3.10;;;;;;;;;;8266133;28;20042;-85
2022/05/21 19:57:48;;;;;;;5.72;2.60;;;;;;;;;;8266221;28;20062;-87
2022/05/21 20:01:52;;;;;;;4.75;2.42;;;;;;;;;;8266704;28;20054;-86
2022/05/21 20:05:55;;;;;;;3.53;2.10;;;;;;;;;;8265916;28;20081;-89
2022/05/21 20:10:01;;;;;;;4.22;2.40;;;;;;;;;;8266142;28;20137;-86
2022/05/21 20:14:05;;;;;;;4.63;2.42;;;;;;;;;;8265690;28;20133;-85
2022/05/21 20:18:10;;;;;;;4.80;2.65;;;;;;;;;;8266127;28;20062;-84
2022/05/21 20:22:16;;;;;;;5.47;2.63;;;;;;;;;;8266045;28;20046;-87
2022/05/21 20:26:23;;;;;;;5.70;2.75;;;;;;;;;;8264009;28;20124;-87
2022/05/21 20:30:26;;;;;;;7.68;3.20;;;;;;;;;;8257493;28;20498;-86
2022/05/21 20:34:31;;;;;;;6.07;3.25;;;;;;;;;;8262230;28;20042;-84
2022/05/21 20:38:35;;;;;;;8.68;3.85;;;;;;;;;;8265249;28;20074;-88
2022/05/21 20:42:40;;;;;;;5.85;3.30;;;;;;;;;;8264839;28;20065;-90
2022/05/21 20:46:47;;;;;;;4.70;2.70;;;;;;;;;;8265194;28;20125;-86
2022/05/21 20:50:50;;;;;;;4.50;2.83;;;;;;;;;;8264923;28;20470;-88
2022/05/21 20:54:53;;;;;;;6.28;3.00;;;;;;;;;;8267788;28;20046;-84
2022/05/21 20:59:02;;;;;;;5.43;3.53;;;;;;;;;;8271255;28;20065;-84
2022/05/21 21:03:12;;;;;;;6.00;2.92;;;;;;;;;;8271434;28;20042;-84
2022/05/21 21:07:19;;;;;;;4.70;2.65;;;;;;;;;;8271412;28;20050;-84
2022/05/21 21:11:23;;;;;;;6.55;2.88;;;;;;;;;;8271354;28;20053;-83
2022/05/21 21:15:31;;;;;;;7.47;3.38;;;;;;;;;;8270951;28;20042;-84
2022/05/21 21:19:33;;;;;;;5.78;3.03;;;;;;;;;;8266287;28;20049;-89
2022/05/21 21:23:36;;;;;;;4.65;2.88;;;;;;;;;;8271071;28;20054;-84
2022/05/21 21:27:41;;;;;;;5.68;3.00;;;;;;;;;;8266120;28;20093;-85
2022/05/21 21:31:45;;;;;;;5.28;3.53;;;;;;;;;;8271254;28;20100;-87
2022/05/21 21:35:48;;;;;;;8.02;3.42;;;;;;;;;;8266367;28;20054;-84
2022/05/21 21:39:52;;;;;;;5.90;3.38;;;;;;;;;;8262857;28;20477;-85
2022/05/21 21:43:54;;;;;;;5.35;3.30;;;;;;;;;;8266240;28;20046;-84
2022/05/21 21:48:00;;;;;;;8.38;3.35;;;;;;;;;;8267074;28;20391;-85
2022/05/21 21:52:03;;;;;;;6.72;3.70;;;;;;;;;;8264026;28;20046;-85
2022/05/21 21:56:06;;;;;;;8.52;4.05;;;;;;;;;;8257748;28;20042;-84
2022/05/21 22:05:05;;;;;;;8.85;4.28;;;;;;;;;;8269450;28;20451;-85
2022/05/21 22:09:08;;;;;;;8.85;4.35;;;;;;;;;;8268465;28;20042;-86
2022/05/21 22:13:11;;;;;;;6.70;4.25;;;;;;;;;;8265480;28;20042;-87
2022/05/21 22:17:13;;;;;;;9.02;4.28;;;;;;;;;;8265309;28;20129;-86
2022/05/21 22:21:17;;;;;;;8.10;3.85;;;;;;;;;;8269686;28;20066;-85
2022/05/21 22:25:20;;;;;;;6.35;3.97;;;;;;;;;;8268645;28;20104;-84
2022/05/21 22:29:23;;;;;;;8.20;4.68;;;;;;;;;;8265444;28;20513;-85
2022/05/21 22:33:26;;;;;;;10.00;4.90;;;;;;;;;;8267122;28;20052;-84
2022/05/21 22:37:30;;;;;;;8.02;4.32;;;;;;;;;;8266563;28;20054;-84
2022/05/21 22:41:33;;;;;;;8.68;5.20;;;;;;;;;;8269109;28;20125;-82
2022/05/21 22:45:36;;;;;;;11.43;5.05;;;;;;;;;;8268605;28;20495;-82
2022/05/21 22:49:38;;;;;;;8.35;4.88;;;;;;;;;;8268263;28;20054;-81
2022/05/21 22:53:43;;;;;;;9.55;5.03;;;;;;;;;;8268272;28;20054;-81
2022/05/21 22:57:46;;;;;;;11.20;4.95;;;;;;;;;;8267937;28;20054;-81
2022/05/21 23:01:49;;;;;;;10.82;5.75;;;;;;;;;;8266296;28;20045;-82
2022/05/21 23:05:51;;;;;;;7.85;4.35;;;;;;;;;;8267074;28;20467;-82
2022/05/21 23:09:58;;;;;;;7.28;4.97;;;;;;;;;;8262353;28;20046;-83
2022/05/21 23:18:32;;;;;;;7.10;4.70;;;;;;;;;;8267171;28;20215;-82
2022/05/21 23:22:36;;;;;;;10.00;5.22;;;;;;;;;;8267915;28;20501;-84
2022/05/21 23:26:40;;;;;;;9.63;4.43;;;;;;;;;;8266930;28;20046;-82
2022/05/21 23:30:46;;;;;;;9.55;4.75;;;;;;;;;;8267167;28;20074;-84
2022/05/21 23:34:49;;;;;;;9.20;5.07;;;;;;;;;;8267062;28;20050;-83
2022/05/21 23:38:51;;;;;;;11.10;4.68;;;;;;;;;;8266993;28;20070;-83
2022/05/21 23:42:55;;;;;;;12.45;4.97;;;;;;;;;;8266251;28;20047;-81
2022/05/21 23:46:59;;;;;;;8.20;5.38;;;;;;;;;;8266796;28;20053;-79
2022/05/21 23:51:02;;;;;;;13.07;5.15;;;;;;;;;;8266887;28;20046;-83
2022/05/21 23:55:06;;;;;;;9.13;4.63;;;;;;;;;;8266029;28;20057;-86
2022/05/21 23:59:11;;;;;;;9.70;4.75;;;;;;;;;;8266310;28;20054;-82
